Time;durP1;ratioP1;P1;durP2;ratioP2;P2;SDS_P1;SDS_P2;PMS_P1;PMS_P2;Temp;Humidity;BMP_temperature;BMP_pressure;BME280_temperature;BME280_humidity;BME280_pressure;Samples;Min_cycle;Max_cycle;Signal;HPM_P1;HPM_P2
2021/03/04 00:00:02;;;;;;;18.02;12.37;;;;;;;-1.58;80.29;100952.77;1777341;81;21320;-76
2021/03/04 00:03:09;;;;;;;18.32;9.58;;;;;;;-1.58;80.29;100952.29;1777285;81;21311;-76
2021/03/04 00:06:14;;;;;;;10.45;6.95;;;;;;;-1.61;80.23;100947.08;1777226;81;21153;-76
2021/03/04 00:09:19;;;;;;;10.10;5.83;;;;;;;-1.62;80.23;100937.30;1777358;81;21268;-76
2021/03/04 00:12:25;;;;;;;12.53;6.72;;;;;;;-1.67;80.21;100937.17;1777288;81;21295;-76
2021/03/04 00:15:33;;;;;;;13.55;7.10;;;;;;;-1.73;80.48;100931.67;1777415;81;21193;-76
2021/03/04 00:18:38;;;;;;;12.40;6.22;;;;;;;-1.71;80.74;100930.23;1782608;79;21846;-76
2021/03/04 00:21:43;;;;;;;14.00;6.67;;;;;;;-1.71;80.85;100927.55;1803431;79;21750;-76
2021/03/04 00:24:49;;;;;;;12.60;6.65;;;;;;;-1.72;80.75;100921.80;1803509;79;21267;-76
2021/03/04 00:27:54;;;;;;;13.28;6.53;;;;;;;-1.70;80.79;100925.25;1803439;79;21299;-76
2021/03/04 00:30:59;;;;;;;13.85;6.20;;;;;;;-1.75;80.49;100916.59;1803538;79;21217;-76
2021/03/04 00:34:06;;;;;;;13.75;6.37;;;;;;;-1.82;80.40;100914.25;1803483;79;21264;-76
2021/03/04 00:37:11;;;;;;;12.45;6.00;;;;;;;-1.82;80.55;100909.36;1803399;79;21818;-76
2021/03/04 00:40:19;;;;;;;15.03;7.45;;;;;;;-1.87;80.63;100910.95;1803453;79;21185;-76
2021/03/04 00:43:24;;;;;;;18.42;8.28;;;;;;;-1.96;80.54;100906.56;1803426;79;21299;-76
2021/03/04 00:46:30;;;;;;;13.05;7.50;;;;;;;-1.95;81.08;100900.24;1803414;79;21884;-76
2021/03/04 00:49:36;;;;;;;13.72;6.85;;;;;;;-1.87;81.68;100900.70;1803410;79;21687;-76
2021/03/04 00:52:42;;;;;;;18.45;8.40;;;;;;;-1.87;82.01;100896.20;1803404;79;21853;-76
2021/03/04 00:55:48;;;;;;;15.35;9.13;;;;;;;-1.88;82.41;100899.84;1803446;79;21885;-76
2021/03/04 00:58:53;;;;;;;18.48;10.60;;;;;;;-1.90;82.90;100888.31;1803462;79;21233;-76
2021/03/04 01:01:58;;;;;;;21.07;11.25;;;;;;;-1.92;83.37;100883.52;1803432;79;21301;-76
2021/03/04 01:05:04;;;;;;;23.35;12.25;;;;;;;-1.93;83.93;100880.45;1803660;79;21141;-76
2021/03/04 01:08:11;;;;;;;21.80;11.03;;;;;;;-1.94;84.31;100878.70;1803480;79;21292;-76
2021/03/04 01:11:16;;;;;;;16.65;9.73;;;;;;;-1.94;84.58;100871.13;1803390;79;21252;-76
2021/03/04 01:14:21;;;;;;;17.05;9.90;;;;;;;-1.95;84.77;100874.30;1803483;79;21807;-76
2021/03/04 01:17:27;;;;;;;21.30;10.30;;;;;;;-1.93;84.96;100871.08;1803428;79;21714;-76
2021/03/04 01:20:34;;;;;;;20.27;11.20;;;;;;;-1.91;85.04;100868.30;1803010;79;21232;-76
2021/03/04 01:23:39;;;;;;;17.55;9.83;;;;;;;-1.93;85.13;100863.03;1803519;79;21260;-76
2021/03/04 01:26:39;;;;;;;19.40;11.18;;;;;;;-1.94;85.19;100859.93;1803730;79;21886;-76
2021/03/04 01:29:43;;;;;;;17.30;11.45;;;;;;;-1.93;85.26;100861.69;1803523;79;21145;-76
2021/03/04 01:32:48;;;;;;;22.98;13.70;;;;;;;-1.90;85.35;100863.32;1803436;79;21193;-76
2021/03/04 01:35:54;;;;;;;20.50;12.65;;;;;;;-1.89;85.38;100856.52;1803592;79;21275;-76
2021/03/04 01:38:59;;;;;;;24.10;14.13;;;;;;;-1.87;85.33;100864.03;1803450;79;21288;-76
2021/03/04 01:42:05;;;;;;;25.88;13.78;;;;;;;-1.84;85.43;100858.48;1803465;79;21838;-76
2021/03/04 01:45:11;;;;;;;23.50;13.60;;;;;;;-1.82;85.39;100865.98;1803548;79;21268;-76
2021/03/04 01:48:35;;;;;;;29.15;15.83;;;;;;;-1.83;85.29;100862.05;1803459;79;21141;-76
2021/03/04 01:51:41;;;;;;;24.80;15.20;;;;;;;-1.85;85.31;100854.55;1803606;79;21208;-76
2021/03/04 01:54:46;;;;;;;34.98;18.27;;;;;;;-1.86;85.34;100854.16;1803587;79;21296;-76
2021/03/04 01:57:53;;;;;;;28.02;16.25;;;;;;;-1.91;85.40;100851.73;1803344;79;21315;-76
2021/03/04 02:00:58;;;;;;;29.63;17.60;;;;;;;-1.91;85.63;100846.84;1803559;79;21268;-76
2021/03/04 02:04:04;;;;;;;36.35;18.62;;;;;;;-1.94;85.68;100845.19;1803451;79;21284;-76
2021/03/04 02:07:34;;;;;;;28.45;17.40;;;;;;;-1.97;85.81;100848.53;1803473;79;21300;-76
2021/03/04 02:10:54;;;;;;;33.05;18.57;;;;;;;-1.95;86.08;100837.23;1803411;79;21328;-76
2021/03/04 02:14:15;;;;;;;32.13;17.92;;;;;;;-1.95;86.13;100835.41;1803691;79;21169;-76
2021/03/04 02:17:20;;;;;;;37.03;21.57;;;;;;;-1.94;86.34;100837.14;1803561;79;21233;-76
2021/03/04 02:21:00;;;;;;;30.80;18.07;;;;;;;-1.95;86.43;100839.91;1802701;79;21300;-76
2021/03/04 02:24:42;;;;;;;39.42;18.98;;;;;;;-1.93;86.73;100837.55;1812024;79;21275;-76
2021/03/04 02:27:46;;;;;;;33.33;20.05;;;;;;;-1.88;86.89;100834.63;1812001;79;21786;-76
2021/03/04 02:30:52;;;;;;;39.48;20.10;;;;;;;-1.90;86.83;100840.53;1812019;79;21817;-76
2021/03/04 02:33:58;;;;;;;34.27;19.62;;;;;;;-1.91;86.85;100840.14;1811818;79;21215;-76
2021/03/04 02:37:03;;;;;;;32.45;19.98;;;;;;;-1.92;86.93;100839.28;1812007;79;21319;-76
2021/03/04 02:40:08;;;;;;;31.62;19.23;;;;;;;-1.97;86.97;100833.78;1811916;79;21303;-76
2021/03/04 02:43:17;;;;;;;36.55;21.80;;;;;;;-2.06;87.07;100839.17;1812031;79;21315;-76
2021/03/04 02:46:23;;;;;;;42.25;21.77;;;;;;;-2.08;87.27;100831.66;1811985;79;21291;-76
2021/03/04 02:49:29;;;;;;;32.48;19.05;;;;;;;-2.12;87.39;100833.67;1812070;79;21353;-76
2021/03/04 02:52:34;;;;;;;47.58;23.20;;;;;;;-2.14;87.55;100824.83;1811945;79;21845;-77
2021/03/04 02:55:39;;;;;;;35.90;19.67;;;;;;;-2.13;87.68;100821.67;1812073;79;21291;-76
2021/03/04 02:58:45;;;;;;;37.48;21.07;;;;;;;-2.14;87.69;100827.98;1811969;79;21268;-76
2021/03/04 03:01:51;;;;;;;48.52;22.27;;;;;;;-2.18;87.77;100824.59;1811819;79;21330;-76
2021/03/04 03:04:55;;;;;;;55.98;22.90;;;;;;;-2.22;87.83;100806.09;1811958;79;21288;-76
2021/03/04 03:08:02;;;;;;;42.60;24.47;;;;;;;-2.25;88.00;100807.61;1810334;79;21761;-76
2021/03/04 03:11:07;;;;;;;45.25;24.20;;;;;;;-2.27;88.17;100813.03;1811996;79;21323;-76
2021/03/04 03:14:15;;;;;;;48.63;26.02;;;;;;;-2.27;88.29;100803.66;1811989;79;21280;-76
2021/03/04 03:17:21;;;;;;;45.30;24.57;;;;;;;-2.28;88.37;100806.42;1811984;79;21188;-76
2021/03/04 03:20:29;;;;;;;50.15;27.67;;;;;;;-2.32;88.47;100803.03;1810991;79;21853;-76
2021/03/04 03:23:33;;;;;;;45.03;24.45;;;;;;;-2.31;88.67;100790.02;1796408;79;21268;-76
2021/03/04 03:26:39;;;;;;;51.58;28.38;;;;;;;-2.32;88.84;100789.64;1796174;80;21307;-76
2021/03/04 03:29:43;;;;;;;53.70;28.32;;;;;;;-2.33;89.00;100787.44;1796182;80;21299;-77
2021/03/04 03:32:53;;;;;;;46.48;26.60;;;;;;;-2.31;89.21;100779.30;1795942;80;21316;-76
2021/03/04 03:35:59;;;;;;;51.18;28.98;;;;;;;-2.32;89.36;100776.23;1796054;80;21323;-76
2021/03/04 03:39:04;;;;;;;57.58;29.70;;;;;;;-2.36;89.50;100773.33;1796138;80;21264;-76
2021/03/04 03:42:10;;;;;;;51.60;26.80;;;;;;;-2.42;89.60;100770.52;1796190;80;21210;-76
2021/03/04 03:45:20;;;;;;;50.45;26.37;;;;;;;-2.44;89.82;100769.75;1796105;80;21190;-76
2021/03/04 03:48:25;;;;;;;41.85;23.22;;;;;;;-2.45;90.01;100769.80;1796048;80;21224;-76
2021/03/04 03:51:31;;;;;;;58.68;29.30;;;;;;;-2.47;90.10;100762.34;1794883;80;21316;-76
2021/03/04 03:54:36;;;;;;;49.77;26.02;;;;;;;-2.55;90.15;100765.41;1796056;80;21154;-76
2021/03/04 03:57:40;;;;;;;51.05;25.62;;;;;;;-2.59;90.24;100757.15;1769952;79;21299;-76
2021/03/04 04:00:45;;;;;;;52.80;27.48;;;;;;;-2.61;90.31;100755.04;1795740;79;21308;-77
2021/03/04 04:03:50;;;;;;;53.15;26.37;;;;;;;-2.61;90.46;100754.56;1773470;81;21252;-77
2021/03/04 04:06:56;;;;;;;50.03;26.50;;;;;;;-2.56;90.64;100742.27;1771028;81;21165;-77
2021/03/04 04:10:02;;;;;;;60.15;27.45;;;;;;;-2.49;90.86;100739.66;1770659;81;21797;-77
2021/03/04 04:13:08;;;;;;;55.58;28.12;;;;;;;-2.46;91.00;100745.31;1769865;79;21176;-77
2021/03/04 04:16:13;;;;;;;56.98;30.75;;;;;;;-2.42;91.19;100736.16;1769812;79;21165;-77
2021/03/04 04:19:19;;;;;;;64.07;34.03;;;;;;;-2.38;91.30;100727.88;1769677;81;21684;-77
2021/03/04 04:22:25;;;;;;;44.88;26.15;;;;;;;-2.36;91.32;100727.30;1768827;79;21197;-76
2021/03/04 04:25:31;;;;;;;39.58;21.82;;;;;;;-2.34;91.36;100729.44;1804054;79;21164;-77
2021/03/04 04:28:36;;;;;;;43.35;26.05;;;;;;;-2.37;91.31;100721.56;1804023;79;21208;-77
2021/03/04 04:31:40;;;;;;;36.83;21.20;;;;;;;-2.40;91.32;100709.70;1803872;79;21339;-77
2021/03/04 04:34:46;;;;;;;27.87;18.35;;;;;;;-2.36;91.46;100710.36;1803989;79;21797;-77
2021/03/04 04:37:52;;;;;;;29.85;16.87;;;;;;;-2.32;91.61;100707.44;1783482;79;21311;-77
2021/03/04 04:40:57;;;;;;;27.98;17.07;;;;;;;-2.26;91.78;100694.64;1779962;80;21690;-76
2021/03/04 04:44:02;;;;;;;18.10;12.28;;;;;;;-2.21;91.96;100692.57;1765404;80;21197;-77
2021/03/04 04:47:09;;;;;;;30.23;17.85;;;;;;;-2.10;92.20;100691.51;1797308;79;21287;-77
2021/03/04 04:50:14;;;;;;;19.87;13.38;;;;;;;-2.02;92.32;100686.59;1811961;79;21790;-76
2021/03/04 04:53:20;;;;;;;23.10;15.55;;;;;;;-1.92;92.45;100695.83;1812003;79;21304;-77
2021/03/04 04:56:25;;;;;;;17.98;12.13;;;;;;;-1.84;92.56;100689.53;1792639;79;21817;-77
2021/03/04 04:59:31;;;;;;;18.73;12.95;;;;;;;-1.77;92.65;100690.55;1780007;80;21712;-77
2021/03/04 05:02:30;;;;;;;22.90;13.98;;;;;;;-1.71;92.77;100689.70;1778904;80;21227;-77
2021/03/04 05:05:29;;;;;;;20.48;14.10;;;;;;;-1.64;92.86;100684.86;1801360;79;21300;-77
2021/03/04 05:08:34;;;;;;;19.20;14.10;;;;;;;-1.59;92.98;100684.11;1779628;80;21294;-77
2021/03/04 05:11:39;;;;;;;21.27;14.45;;;;;;;-1.52;93.12;100685.46;1779620;80;21298;-78
2021/03/04 05:14:44;;;;;;;27.32;16.07;;;;;;;-1.45;93.23;100679.28;1742547;82;21404;-77
2021/03/04 05:17:49;;;;;;;23.25;14.78;;;;;;;-1.37;93.35;100675.64;1730437;82;21268;-77
2021/03/04 05:20:55;;;;;;;23.07;13.32;;;;;;;-1.25;93.49;100678.08;1738058;82;21842;-77
2021/03/04 05:24:00;;;;;;;25.05;14.47;;;;;;;-1.20;93.54;100674.16;1706976;82;21342;-77
2021/03/04 05:27:06;;;;;;;44.03;18.90;;;;;;;-1.12;93.56;100672.36;1726514;82;21213;-77
2021/03/04 05:30:12;;;;;;;24.05;14.15;;;;;;;-1.04;93.55;100672.73;1721052;82;21280;-77
2021/03/04 05:33:18;;;;;;;26.97;16.17;;;;;;;-0.98;93.53;100667.02;1787326;79;21173;-77
2021/03/04 05:36:24;;;;;;;34.20;16.85;;;;;;;-0.96;93.42;100667.77;1773576;79;21218;-78
2021/03/04 05:39:29;;;;;;;29.75;16.62;;;;;;;-0.93;93.38;100657.34;1786028;79;21137;-78
2021/03/04 05:42:38;;;;;;;38.08;19.70;;;;;;;-0.87;93.41;100655.13;1781395;79;21268;-78
2021/03/04 05:45:43;;;;;;;29.00;16.27;;;;;;;-0.82;93.41;100657.52;1785063;79;21679;-78
2021/03/04 05:48:51;;;;;;;33.78;19.92;;;;;;;-0.78;93.46;100644.29;1782775;79;21307;-78
2021/03/04 05:51:57;;;;;;;37.70;19.77;;;;;;;-0.71;93.50;100641.58;1779322;79;21153;-77
2021/03/04 05:55:02;;;;;;;31.45;17.80;;;;;;;-0.57;93.64;100635.34;1777903;79;21295;-77
2021/03/04 05:58:07;;;;;;;31.30;18.17;;;;;;;-0.40;93.72;100632.94;1779517;79;21330;-77
2021/03/04 06:01:12;;;;;;;37.90;20.62;;;;;;;-0.26;93.72;100623.02;1787902;79;21276;-77
2021/03/04 06:04:19;;;;;;;30.02;17.15;;;;;;;-0.10;93.62;100616.14;1780976;79;21392;-77
2021/03/04 06:07:26;;;;;;;25.40;14.40;;;;;;;0.03;93.43;100608.62;1777838;79;21299;-77
2021/03/04 06:10:31;;;;;;;20.92;12.80;;;;;;;0.13;93.13;100607.03;1778782;79;21271;-77
2021/03/04 06:13:37;;;;;;;23.60;11.28;;;;;;;0.19;92.73;100594.55;1776158;79;21309;-76
2021/03/04 06:16:42;;;;;;;23.92;14.38;;;;;;;0.22;92.28;100591.62;1778261;79;21263;-78
2021/03/04 06:19:48;;;;;;;30.82;15.10;;;;;;;0.29;92.03;100586.22;1776923;79;21850;-77
2021/03/04 06:22:55;;;;;;;24.92;12.90;;;;;;;0.41;91.92;100576.44;1781627;79;21189;-78
2021/03/04 06:26:02;;;;;;;21.10;13.13;;;;;;;0.58;91.88;100584.23;1778728;79;21868;-78
2021/03/04 06:29:25;;;;;;;29.98;15.45;;;;;;;0.71;91.61;100586.45;1779193;79;21256;-77
2021/03/04 06:32:31;;;;;;;27.90;14.45;;;;;;;0.85;91.34;100576.06;1780257;79;21306;-77
2021/03/04 06:35:43;;;;;;;26.97;15.05;;;;;;;1.01;90.97;100582.08;1780101;79;21291;-77
2021/03/04 06:38:51;;;;;;;24.02;13.70;;;;;;;1.16;90.66;100569.83;1776984;79;21194;-76
2021/03/04 06:42:11;;;;;;;29.87;15.55;;;;;;;1.30;90.25;100566.14;1778270;79;21889;-78
2021/03/04 06:45:18;;;;;;;;;;;;;;;1.39;89.59;100562.30;1782658;79;21296;-77
2021/03/04 06:48:26;;;;;;;19.55;12.28;;;;;;;1.51;89.10;100561.91;1774692;79;20220;-77
2021/03/04 06:51:33;;;;;;;23.25;12.43;;;;;;;1.59;88.81;100558.13;1714260;82;21322;-79
2021/03/04 06:54:40;;;;;;;27.50;14.40;;;;;;;1.65;88.58;100550.96;1777458;79;21833;-80
2021/03/04 06:58:10;;;;;;;26.00;13.35;;;;;;;1.73;88.65;100547.19;1773927;79;21232;-79
2021/03/04 07:01:25;;;;;;;26.80;13.50;;;;;;;1.86;88.82;100542.23;1765082;79;21821;-79
2021/03/04 07:04:30;;;;;;;19.32;12.68;;;;;;;2.02;88.94;100534.23;1776855;79;21279;-79
2021/03/04 07:07:36;;;;;;;21.05;13.50;;;;;;;2.14;88.88;100528.38;1774412;79;21764;-79
2021/03/04 07:10:41;;;;;;;21.40;12.68;;;;;;;2.28;88.93;100528.19;1778540;79;21307;-80
2021/03/04 07:13:48;;;;;;;21.57;12.80;;;;;;;2.42;88.90;100510.06;1778282;79;21318;-80
2021/03/04 07:16:54;;;;;;;23.05;12.90;;;;;;;2.48;88.56;100506.88;1779080;79;21292;-81
2021/03/04 07:20:08;;;;;;;20.97;11.22;;;;;;;2.52;88.40;100499.77;1780293;79;21661;-81
2021/03/04 07:23:15;;;;;;;21.42;11.90;;;;;;;2.66;88.37;100501.38;1777035;79;21866;-79
2021/03/04 07:26:22;;;;;;;21.77;13.55;;;;;;;2.82;88.01;100496.97;1767300;78;21152;-78
2021/03/04 07:29:29;;;;;;;21.15;12.25;;;;;;;2.93;87.35;100488.03;1698416;82;21883;-79
2021/03/04 07:32:35;;;;;;;21.95;12.93;;;;;;;2.97;86.80;100479.55;1718622;82;21200;-79
2021/03/04 07:35:41;;;;;;;24.90;13.93;;;;;;;3.05;86.74;100470.80;1737619;81;21224;-79
2021/03/04 07:38:47;;;;;;;25.02;14.30;;;;;;;3.11;86.21;100465.42;1733552;81;21358;-78
2021/03/04 07:41:53;;;;;;;22.32;14.28;;;;;;;3.22;86.16;100454.58;1732004;81;21208;-78
2021/03/04 07:44:59;;;;;;;24.85;14.03;;;;;;;3.29;85.62;100455.31;1735015;81;21310;-78
2021/03/04 07:48:17;;;;;;;23.60;14.23;;;;;;;3.32;85.35;100449.63;1735232;81;21362;-78
2021/03/04 07:51:22;;;;;;;24.10;13.88;;;;;;;3.38;85.19;100443.34;1735253;81;21692;-77
2021/03/04 07:54:38;;;;;;;27.45;15.25;;;;;;;3.49;85.16;100437.43;1731440;81;21843;-79
2021/03/04 07:57:56;;;;;;;26.17;14.95;;;;;;;3.57;84.64;100432.22;1735823;81;21647;-79
2021/03/04 08:01:01;;;;;;;28.50;15.72;;;;;;;3.65;84.49;100423.47;1737450;81;21342;-79
2021/03/04 08:04:06;;;;;;;29.67;15.98;;;;;;;3.77;84.57;100421.59;1737169;81;21267;-80
2021/03/04 08:07:12;;;;;;;28.75;15.08;;;;;;;3.93;84.47;100424.69;1736504;81;21403;-79
2021/03/04 08:10:22;;;;;;;30.08;16.85;;;;;;;4.07;83.91;100424.37;1735282;81;21333;-81
2021/03/04 08:13:46;;;;;;;32.15;17.75;;;;;;;4.23;83.44;100422.54;1736196;80;21295;-80
2021/03/04 08:16:53;;;;;;;34.88;18.57;;;;;;;4.33;82.80;100407.23;1734823;81;21335;-81
2021/03/04 08:19:58;;;;;;;31.82;17.85;;;;;;;4.45;81.92;100408.49;1711090;81;21168;-80
2021/03/04 08:23:04;;;;;;;29.65;17.37;;;;;;;4.53;81.13;100398.70;1736056;81;21810;-79
2021/03/04 08:26:10;;;;;;;34.27;17.87;;;;;;;4.58;80.67;100398.30;1734303;81;21259;-78
2021/03/04 08:29:18;;;;;;;33.70;18.05;;;;;;;4.65;80.51;100392.68;1708255;81;21583;-78
2021/03/04 08:32:24;;;;;;;38.58;18.92;;;;;;;4.69;79.69;100384.64;1712398;82;21288;-78
2021/03/04 08:35:32;;;;;;;32.93;17.92;;;;;;;4.74;79.34;100379.67;1712551;81;21314;-80
2021/03/04 08:38:48;;;;;;;35.45;19.12;;;;;;;4.82;79.75;100373.57;1693891;81;21150;-79
2021/03/04 08:41:53;;;;;;;33.80;18.32;;;;;;;4.96;79.87;100370.97;1714782;81;21200;-79
2021/03/04 08:44:59;;;;;;;42.50;19.10;;;;;;;5.09;79.33;100375.15;1727620;81;21299;-78
2021/03/04 08:48:04;;;;;;;31.68;17.50;;;;;;;5.16;78.56;100365.94;1702221;82;21971;-78
2021/03/04 08:51:11;;;;;;;30.95;17.00;;;;;;;5.22;78.22;100359.09;1700740;82;21308;-79
2021/03/04 08:54:35;;;;;;;34.60;17.80;;;;;;;5.29;77.95;100357.05;1698991;82;21303;-80
2021/03/04 08:57:39;;;;;;;38.48;17.42;;;;;;;5.33;77.74;100355.77;1724706;81;21184;-79
2021/03/04 09:00:45;;;;;;;32.67;17.55;;;;;;;5.41;77.71;100354.19;1703670;82;21351;-81
2021/03/04 09:03:51;;;;;;;33.10;16.55;;;;;;;5.45;77.10;100351.55;1698410;83;21217;-80
2021/03/04 09:06:56;;;;;;;31.82;17.40;;;;;;;5.53;77.76;100343.56;1732822;81;21317;-80
2021/03/04 09:10:10;;;;;;;31.55;16.93;;;;;;;5.64;77.24;100332.55;1724741;81;21353;-80
2021/03/04 09:13:17;;;;;;;27.27;15.08;;;;;;;5.71;76.58;100330.98;1709515;82;21231;-80
2021/03/04 09:16:24;;;;;;;31.23;17.62;;;;;;;5.75;75.85;100331.06;1711137;81;21845;-80
2021/03/04 09:19:43;;;;;;;28.52;15.32;;;;;;;5.80;75.71;100326.55;1720642;81;21622;-81
2021/03/04 09:22:50;;;;;;;29.85;16.27;;;;;;;5.86;75.72;100321.38;1723360;81;21278;-80
2021/03/04 09:25:54;;;;;;;28.02;15.88;;;;;;;5.88;74.85;100328.90;1701200;82;21240;-80
2021/03/04 09:29:00;;;;;;;32.73;15.08;;;;;;;5.87;74.94;100311.37;1733993;81;21307;-79
2021/03/04 09:32:06;;;;;;;28.83;15.83;;;;;;;5.93;74.42;100299.11;1779734;79;21271;-81
2021/03/04 09:35:18;;;;;;;29.25;14.40;;;;;;;5.99;74.05;100302.11;1779319;79;21165;-79
2021/03/04 09:38:24;;;;;;;35.55;16.32;;;;;;;6.04;74.32;100301.66;1781129;79;21325;-78
2021/03/04 09:41:31;;;;;;;28.38;15.78;;;;;;;6.07;73.88;100296.80;1780430;79;21296;-79
2021/03/04 09:44:38;;;;;;;25.37;12.70;;;;;;;6.15;74.18;100290.61;1781292;79;21177;-81
2021/03/04 09:47:50;;;;;;;25.65;15.35;;;;;;;6.27;74.31;100288.08;1765906;79;21889;-79
2021/03/04 09:51:00;;;;;;;25.10;14.80;;;;;;;6.35;74.23;100280.52;1776887;79;21286;-82
2021/03/04 09:54:06;;;;;;;25.72;14.13;;;;;;;6.43;74.07;100283.86;1777450;79;21454;-80
2021/03/04 09:57:16;;;;;;;25.97;13.32;;;;;;;6.56;73.88;100268.91;1774786;79;21300;-82
2021/03/04 10:00:30;;;;;;;35.48;15.88;;;;;;;6.63;73.81;100267.31;1778604;79;22336;-81
2021/03/04 10:03:44;;;;;;;26.17;14.70;;;;;;;6.71;74.00;100267.89;1778248;79;21271;-78
2021/03/04 10:06:51;;;;;;;24.65;14.00;;;;;;;6.85;74.26;100256.50;1777352;79;21212;-78
2021/03/04 10:09:56;;;;;;;24.45;13.60;;;;;;;6.97;72.92;100245.41;1779688;79;21295;-78
2021/03/04 10:13:02;;;;;;;30.02;13.93;;;;;;;6.98;72.82;100247.12;1768874;79;21844;-78
2021/03/04 10:16:19;;;;;;;28.92;13.78;;;;;;;7.02;74.03;100243.08;1775264;79;22239;-78
2021/03/04 10:19:25;;;;;;;32.40;14.50;;;;;;;7.08;72.75;100238.38;1776659;79;21180;-79
2021/03/04 10:22:30;;;;;;;25.45;12.85;;;;;;;7.15;72.42;100231.28;1778895;79;21342;-79
2021/03/04 10:25:33;;;;;;;26.68;12.60;;;;;;;7.19;73.26;100223.16;1780225;79;21718;-81
2021/03/04 10:28:40;;;;;;;23.42;12.30;;;;;;;7.23;72.23;100236.80;1777547;79;21735;-79
2021/03/04 10:31:47;;;;;;;25.72;13.08;;;;;;;7.24;72.70;100219.46;1778435;79;21380;-79
2021/03/04 10:34:52;;;;;;;22.82;12.50;;;;;;;7.30;72.42;100212.56;1778596;79;21350;-78
2021/03/04 10:37:59;;;;;;;24.23;12.07;;;;;;;7.31;72.27;100202.02;1781626;79;21875;-79
2021/03/04 10:41:13;;;;;;;28.92;11.75;;;;;;;7.33;72.32;100207.64;1780834;79;21943;-78
2021/03/04 10:44:21;;;;;;;23.57;12.75;;;;;;;7.43;73.12;100207.06;1779398;79;21356;-81
2021/03/04 10:47:26;;;;;;;22.30;12.23;;;;;;;7.57;72.22;100197.95;1778562;79;21314;-79
2021/03/04 10:50:32;;;;;;;26.93;12.23;;;;;;;7.67;72.17;100183.75;1780370;79;21877;-80
2021/03/04 10:53:39;;;;;;;25.05;13.10;;;;;;;7.78;71.37;100183.45;1776657;79;21165;-78
2021/03/04 10:56:44;;;;;;;26.75;13.25;;;;;;;7.87;70.75;100186.58;1778311;79;21331;-80
2021/03/04 10:59:50;;;;;;;21.85;13.20;;;;;;;7.99;70.59;100183.56;1722840;82;21161;-80
2021/03/04 11:02:59;;;;;;;23.65;12.93;;;;;;;8.05;69.72;100187.02;1780378;79;21978;-79
2021/03/04 11:06:05;;;;;;;25.52;12.98;;;;;;;8.12;69.25;100182.61;1779844;79;21319;-79
2021/03/04 11:09:12;;;;;;;22.00;12.45;;;;;;;8.15;69.47;100175.48;1775684;79;21311;-81
2021/03/04 11:12:17;;;;;;;24.10;12.68;;;;;;;8.19;69.13;100178.22;1774649;79;21311;-81
2021/03/04 11:15:28;;;;;;;26.82;13.00;;;;;;;8.17;69.01;100163.89;1776951;79;21322;-81
2021/03/04 11:18:34;;;;;;;27.60;12.45;;;;;;;8.15;68.72;100171.39;1777574;79;21518;-82
2021/03/04 11:21:46;;;;;;;24.02;13.55;;;;;;;8.17;69.06;100164.74;1765278;79;21502;-80
2021/03/04 11:24:53;;;;;;;26.50;15.20;;;;;;;8.28;70.06;100151.35;1774769;79;21336;-80
2021/03/04 11:28:02;;;;;;;26.75;14.13;;;;;;;8.53;69.66;100154.17;1743471;80;21351;-81
2021/03/04 11:31:13;;;;;;;26.05;14.18;;;;;;;8.67;68.96;100137.16;1767473;78;21353;-81
2021/03/04 11:34:19;;;;;;;26.15;13.18;;;;;;;8.71;68.09;100138.53;1742863;79;22188;-81
2021/03/04 11:37:25;;;;;;;28.00;14.30;;;;;;;8.67;68.31;100129.83;1757053;79;21290;-81
2021/03/04 11:40:28;;;;;;;24.95;14.00;;;;;;;8.65;68.62;100122.30;1758210;79;21302;-80
2021/03/04 11:43:34;;;;;;;31.12;15.40;;;;;;;8.66;68.22;100114.49;1756014;79;21787;-80
2021/03/04 11:46:40;;;;;;;22.27;13.40;;;;;;;8.74;69.50;100102.72;1757280;79;21300;-81
2021/03/04 11:49:49;;;;;;;27.22;13.48;;;;;;;8.84;68.99;100105.28;1756900;79;21366;-82
2021/03/04 11:52:59;;;;;;;23.65;12.75;;;;;;;8.84;67.80;100110.22;1758270;79;21343;-81
2021/03/04 11:56:09;;;;;;;23.85;12.95;;;;;;;8.83;68.35;100101.70;1758156;79;21570;-83
2021/03/04 11:59:17;;;;;;;23.02;12.68;;;;;;;8.91;68.07;100088.08;1705915;79;21171;-82
2021/03/04 12:02:23;;;;;;;30.72;13.93;;;;;;;8.98;68.34;100081.41;1755669;79;21609;-82
2021/03/04 12:05:29;;;;;;;28.30;13.45;;;;;;;9.02;67.54;100085.50;1755247;79;21278;-81
2021/03/04 12:08:36;;;;;;;24.57;12.70;;;;;;;9.04;67.45;100077.17;1752611;79;21789;-79
2021/03/04 12:11:44;;;;;;;26.62;13.78;;;;;;;9.07;67.68;100073.56;1757238;79;21302;-81
2021/03/04 12:14:50;;;;;;;24.87;11.90;;;;;;;9.10;66.99;100071.02;1756145;79;21282;-81
2021/03/04 12:17:55;;;;;;;28.52;14.38;;;;;;;9.05;67.11;100058.40;1758051;79;21322;-83
2021/03/04 12:21:02;;;;;;;24.55;12.88;;;;;;;9.03;68.28;100044.06;1761617;79;21698;-83
2021/03/04 12:24:08;;;;;;;27.98;13.65;;;;;;;8.98;67.85;100050.03;1756170;79;21192;-83
2021/03/04 12:27:16;;;;;;;29.02;12.98;;;;;;;8.88;67.55;100052.95;1756437;79;21305;-82
2021/03/04 12:30:23;;;;;;;23.67;13.35;;;;;;;8.79;67.43;100053.97;1756891;79;21805;-82
2021/03/04 12:33:28;;;;;;;20.80;12.55;;;;;;;8.73;68.55;100041.55;1774975;78;21311;-82
2021/03/04 12:36:34;;;;;;;23.07;12.55;;;;;;;8.67;68.60;100045.81;1781441;79;21211;-82
2021/03/04 12:39:40;;;;;;;26.37;14.28;;;;;;;8.59;68.31;100035.75;1779017;79;21181;-82
2021/03/04 12:42:46;;;;;;;26.33;13.93;;;;;;;8.53;68.42;100048.70;1780299;79;21294;-82
2021/03/04 12:45:54;;;;;;;27.77;13.32;;;;;;;8.44;68.41;100043.75;1777659;79;21264;-81
2021/03/04 12:48:58;;;;;;;33.53;14.13;;;;;;;8.40;69.02;100036.93;1776545;79;21287;-82
2021/03/04 12:52:05;;;;;;;25.97;13.35;;;;;;;8.41;69.94;100033.69;1774655;79;21849;-82
2021/03/04 12:55:13;;;;;;;29.50;13.72;;;;;;;8.42;70.23;100018.55;1775564;79;21967;-81
2021/03/04 12:58:21;;;;;;;30.00;15.10;;;;;;;8.44;70.21;100023.31;1776842;79;21294;-80
2021/03/04 13:01:27;;;;;;;28.85;14.18;;;;;;;8.48;69.55;100017.53;1777468;79;21216;-80
2021/03/04 13:04:34;;;;;;;25.92;13.72;;;;;;;8.48;69.52;100021.62;1754384;79;21773;-80
2021/03/04 13:07:40;;;;;;;24.27;13.30;;;;;;;8.49;69.55;100017.86;1778456;79;21829;-82
2021/03/04 13:10:45;;;;;;;27.30;14.40;;;;;;;8.51;70.08;100010.35;1758646;79;21184;-80
2021/03/04 13:13:50;;;;;;;25.32;13.32;;;;;;;8.55;69.68;100010.36;1775650;79;21350;-78
2021/03/04 13:17:00;;;;;;;29.77;13.93;;;;;;;8.57;69.48;99999.64;1776561;79;21950;-80
2021/03/04 13:20:06;;;;;;;26.77;13.75;;;;;;;8.60;69.75;100001.16;1773164;79;21722;-81
2021/03/04 13:23:11;;;;;;;28.12;13.95;;;;;;;8.63;69.57;99992.64;1777457;79;21314;-81
2021/03/04 13:26:18;;;;;;;25.00;12.93;;;;;;;8.62;69.56;99987.70;1777506;79;21279;-80
2021/03/04 13:29:25;;;;;;;24.12;12.75;;;;;;;8.60;69.08;99986.16;1782742;79;21291;-80
2021/03/04 13:32:31;;;;;;;26.65;13.90;;;;;;;8.57;68.96;99981.92;1760339;79;21243;-80
2021/03/04 13:35:37;;;;;;;33.45;13.68;;;;;;;8.49;68.96;99979.70;1772232;80;21707;-80
2021/03/04 13:38:43;;;;;;;29.52;13.28;;;;;;;8.41;69.36;99977.30;1773045;80;21265;-80
2021/03/04 13:41:47;;;;;;;29.07;14.98;;;;;;;8.36;69.63;99966.06;1774700;79;21297;-80
2021/03/04 13:44:52;;;;;;;37.50;16.15;;;;;;;8.30;69.73;99965.36;1773520;79;21208;-80
2021/03/04 13:47:59;;;;;;;35.13;14.45;;;;;;;8.24;69.74;99951.06;1773366;80;21195;-80
2021/03/04 13:51:04;;;;;;;29.92;15.00;;;;;;;8.17;69.37;99958.20;1773226;79;21260;-80
2021/03/04 13:54:03;;;;;;;25.92;13.00;;;;;;;8.08;69.58;99947.80;1777677;79;21248;-80
2021/03/04 13:56:56;;;;;;;33.25;14.20;;;;;;;8.04;69.78;99953.75;1771518;79;21315;-79
2021/03/04 13:59:42;;;;;;;26.50;13.28;;;;;;;8.02;70.15;99949.00;1773555;80;21157;-80
2021/03/04 14:02:35;;;;;;;31.73;14.83;;;;;;;7.96;70.47;99962.78;1771899;80;21295;-79
2021/03/04 14:05:21;;;;;;;30.88;14.98;;;;;;;7.92;70.66;99951.88;1771071;79;21168;-80
2021/03/04 14:08:13;;;;;;;30.55;14.55;;;;;;;7.89;70.85;99948.13;1774891;79;21184;-80
2021/03/04 14:11:18;;;;;;;39.48;16.23;;;;;;;7.82;70.85;99945.23;1770488;80;21268;-80
2021/03/04 14:14:25;;;;;;;36.17;14.83;;;;;;;7.74;70.86;99938.40;1776732;80;21885;-80